Time;durP1;ratioP1;P1;durP2;ratioP2;P2;SDS_P1;SDS_P2;PMS_P1;PMS_P2;Temp;Humidity;BMP_temperature;BMP_pressure;BME280_temperature;BME280_humidity;BME280_pressure;Samples;Min_cycle;Max_cycle;Signal;HPM_P1;HPM_P2
2022/09/25 00:00:42;;;;;;;4.65;2.33;;;12.00;99.90;;;;;;5005496;28;20026;-86
2022/09/25 00:03:12;;;;;;;5.05;2.55;;;12.00;99.90;;;;;;4991535;28;20021;-86
2022/09/25 00:05:39;;;;;;;6.47;2.92;;;12.00;99.90;;;;;;5003405;28;20022;-86
2022/09/25 00:08:06;;;;;;;6.35;3.05;;;12.00;99.90;;;;;;4989480;28;20371;-86
2022/09/25 00:10:32;;;;;;;6.25;3.20;;;11.90;99.90;;;;;;5005275;28;20018;-86
2022/09/25 00:12:58;;;;;;;7.15;3.25;;;12.30;99.90;;;;;;5007683;28;20172;-86
2022/09/25 00:15:24;;;;;;;5.22;2.75;;;11.90;99.90;;;;;;4987671;28;20061;-88
2022/09/25 00:17:50;;;;;;;7.13;3.50;;;12.40;99.90;;;;;;5004020;28;20018;-87
2022/09/25 00:20:19;;;;;;;7.15;3.20;;;12.40;99.90;;;;;;4987579;28;20053;-86
2022/09/25 00:22:45;;;;;;;5.88;3.05;;;11.90;99.90;;;;;;5005291;28;20010;-86
2022/09/25 00:25:13;;;;;;;8.55;4.00;;;11.90;99.90;;;;;;5004368;28;20103;-87
2022/09/25 00:27:40;;;;;;;7.13;3.42;;;12.00;99.90;;;;;;4992158;28;20394;-86
2022/09/25 00:30:07;;;;;;;8.80;4.57;;;12.10;99.90;;;;;;4987140;28;20034;-86
2022/09/25 00:32:33;;;;;;;8.13;4.00;;;11.60;99.90;;;;;;5006451;28;20396;-86
2022/09/25 00:34:59;;;;;;;9.45;4.60;;;12.00;99.90;;;;;;5006819;28;20044;-86
2022/09/25 00:37:27;;;;;;;7.93;4.00;;;11.90;99.90;;;;;;4997422;28;20044;-86
2022/09/25 00:39:55;;;;;;;11.82;4.82;;;11.90;99.90;;;;;;4979405;28;20368;-86
2022/09/25 00:42:22;;;;;;;9.93;4.70;;;11.90;99.90;;;;;;4988019;28;20117;-87
2022/09/25 00:45:02;;;;;;;10.93;4.82;;;11.90;99.90;;;;;;4990732;28;20022;-86
2022/09/25 00:47:44;;;;;;;12.07;5.57;;;11.90;99.90;;;;;;5009589;28;20014;-86
2022/09/25 00:50:29;;;;;;;9.88;4.68;;;11.90;99.90;;;;;;4990182;28;20061;-86
2022/09/25 00:53:07;;;;;;;9.23;4.07;;;11.90;99.90;;;;;;4986960;28;20026;-86
2022/09/25 00:55:35;;;;;;;10.90;4.82;;;11.90;99.90;;;;;;5007210;28;20025;-86
2022/09/25 00:58:03;;;;;;;10.00;4.53;;;11.80;99.90;;;;;;4993104;28;20100;-86
2022/09/25 01:00:30;;;;;;;9.52;4.38;;;11.80;99.90;;;;;;4982993;28;20332;-86
2022/09/25 01:02:57;;;;;;;10.18;4.35;;;11.80;99.90;;;;;;4997409;23;20526;-83
2022/09/25 01:05:30;;;;;;;12.05;5.15;;;11.80;99.90;;;;;;4982412;28;20074;-84
2022/09/25 01:07:59;;;;;;;10.93;5.35;;;11.90;99.90;;;;;;5001956;28;20022;-84
2022/09/25 01:10:25;;;;;;;12.02;4.80;;;12.10;99.90;;;;;;5010790;28;20113;-85
2022/09/25 01:12:51;;;;;;;11.50;5.38;;;11.80;99.90;;;;;;5008372;28;20120;-83
2022/09/25 01:15:21;;;;;;;8.43;4.95;;;12.00;99.90;;;;;;4998190;28;20399;-83
2022/09/25 01:18:13;;;;;;;11.43;4.45;;;11.90;99.90;;;;;;4996974;28;20038;-84
2022/09/25 01:21:04;;;;;;;9.80;4.75;;;11.90;99.90;;;;;;4997340;28;20494;-84
2022/09/25 01:23:54;;;;;;;10.77;4.45;;;11.90;99.90;;;;;;5007044;28;20045;-84
2022/09/25 01:26:35;;;;;;;11.93;5.25;;;11.90;99.90;;;;;;5007367;28;20026;-84
2022/09/25 01:29:24;;;;;;;8.85;4.45;;;11.70;99.90;;;;;;4989789;28;20220;-84
2022/09/25 01:32:03;;;;;;;8.32;4.40;;;11.80;99.90;;;;;;5003418;28;20506;-84
2022/09/25 01:34:35;;;;;;;10.35;5.10;;;11.80;99.90;;;;;;5009018;28;20068;-84
2022/09/25 01:37:10;;;;;;;9.25;4.30;;;11.80;99.90;;;;;;4998700;28;20120;-84
2022/09/25 01:39:41;;;;;;;8.93;4.25;;;11.80;99.90;;;;;;5000998;28;20042;-84
2022/09/25 01:42:17;;;;;;;9.70;4.75;;;11.90;99.90;;;;;;5010252;28;20085;-83
2022/09/25 01:44:51;;;;;;;9.68;5.22;;;11.90;99.90;;;;;;5011005;28;20026;-83
2022/09/25 01:47:23;;;;;;;10.52;5.03;;;11.90;99.90;;;;;;5008846;28;20026;-85
2022/09/25 01:49:59;;;;;;;8.98;4.90;;;11.90;99.90;;;;;;4989274;28;20014;-84
2022/09/25 01:52:31;;;;;;;9.10;4.47;;;12.00;99.90;;;;;;5010788;28;20022;-84
2022/09/25 01:55:07;;;;;;;;;;;11.90;99.90;;;;;;5000667;28;20037;-83
2022/09/25 01:57:50;;;;;;;10.68;4.63;;;11.90;99.90;;;;;;5000569;28;19909;-84
2022/09/25 02:00:20;;;;;;;11.75;4.78;;;11.90;99.90;;;;;;4999364;28;20429;-83
2022/09/25 02:02:57;;;;;;;12.13;4.55;;;11.90;99.90;;;;;;5012700;28;20022;-84
2022/09/25 02:05:31;;;;;;;13.27;5.75;;;11.90;99.90;;;;;;5006640;28;20030;-84
2022/09/25 02:08:09;;;;;;;10.93;4.80;;;11.90;99.90;;;;;;4998595;28;20053;-84
2022/09/25 02:10:48;;;;;;;10.07;4.20;;;11.90;99.90;;;;;;5017494;28;20474;-84
2022/09/25 02:13:19;;;;;;;9.45;4.22;;;11.90;99.90;;;;;;5005907;28;20121;-84
2022/09/25 02:15:51;;;;;;;9.65;4.13;;;11.90;99.90;;;;;;5004142;28;20029;-84
2022/09/25 02:21:33;;;;;;;14.25;4.50;;;11.90;99.90;;;;;;5011296;28;20068;-84
2022/09/25 02:24:08;;;;;;;10.07;4.85;;;11.90;99.90;;;;;;5000604;28;20022;-84
2022/09/25 02:26:35;;;;;;;8.55;4.18;;;11.90;99.90;;;;;;5004076;28;20076;-84
2022/09/25 02:29:02;;;;;;;7.80;3.80;;;11.90;99.90;;;;;;4990464;28;20683;-84
2022/09/25 02:31:34;;;;;;;8.18;3.95;;;11.90;99.90;;;;;;5006589;28;20022;-84
2022/09/25 02:34:00;;;;;;;9.45;4.50;;;11.90;99.90;;;;;;5013816;28;20025;-84
2022/09/25 02:36:25;;;;;;;9.48;4.40;;;11.90;99.90;;;;;;5013563;28;20510;-84
2022/09/25 02:38:54;;;;;;;9.40;4.68;;;12.00;99.90;;;;;;5011181;28;20022;-83
2022/09/25 02:41:42;;;;;;;10.45;4.65;;;12.10;99.90;;;;;;5002520;28;20049;-84
2022/09/25 02:44:10;;;;;;;10.25;4.57;;;12.00;99.90;;;;;;5013482;28;20026;-84
2022/09/25 02:46:52;;;;;;;9.50;4.72;;;12.00;99.90;;;;;;4998749;28;20018;-84
2022/09/25 02:49:46;;;;;;;12.73;4.43;;;12.00;99.90;;;;;;5002858;28;20064;-83
2022/09/25 02:52:59;;;;;;;11.85;5.25;;;12.00;99.90;;;;;;5007664;28;20036;-84
2022/09/25 02:55:42;;;;;;;;;;;12.00;99.90;;;;;;4989050;28;20037;-84
2022/09/25 02:58:31;;;;;;;10.43;4.03;;;12.10;99.90;;;;;;5012968;28;20059;-84
2022/09/25 03:01:00;;;;;;;9.15;4.70;;;12.00;99.90;;;;;;5003823;28;20026;-84
2022/09/25 03:03:27;;;;;;;10.07;4.28;;;12.10;99.90;;;;;;5004056;28;20029;-84
2022/09/25 03:05:56;;;;;;;11.20;5.10;;;12.00;99.90;;;;;;5013660;28;20026;-84
2022/09/25 03:08:37;;;;;;;9.82;4.30;;;12.10;99.90;;;;;;5005681;28;20049;-84
2022/09/25 03:11:08;;;;;;;10.50;4.75;;;12.00;99.90;;;;;;5013838;28;20026;-84
2022/09/25 03:13:35;;;;;;;11.20;4.75;;;12.00;99.90;;;;;;5001621;28;20037;-84
2022/09/25 03:16:06;;;;;;;9.50;3.75;;;12.00;99.90;;;;;;5011565;28;20030;-84
2022/09/25 03:18:32;;;;;;;6.78;3.35;;;12.00;99.90;;;;;;5013335;28;20030;-84
2022/09/25 03:20:58;;;;;;;13.40;3.17;;;11.90;99.90;;;;;;5004254;28;20425;-84
2022/09/25 03:23:24;;;;;;;6.55;3.03;;;11.80;99.90;;;;;;5002751;28;20038;-83
2022/09/25 03:25:53;;;;;;;8.10;3.38;;;11.80;99.90;;;;;;5005624;28;20022;-83
2022/09/25 03:28:19;;;;;;;13.55;3.72;;;11.70;99.90;;;;;;5013407;28;20025;-83
2022/09/25 03:30:55;;;;;;;8.00;3.83;;;11.70;99.90;;;;;;5004921;28;20109;-83
2022/09/25 03:33:20;;;;;;;6.97;3.53;;;11.60;99.90;;;;;;5011891;28;20033;-83
2022/09/25 03:35:46;;;;;;;9.88;3.38;;;11.50;99.90;;;;;;5004342;28;20041;-83
2022/09/25 03:38:11;;;;;;;7.40;3.45;;;11.50;99.90;;;;;;5006519;28;20036;-83
2022/09/25 03:40:37;;;;;;;7.78;3.40;;;11.50;99.90;;;;;;5011851;28;20030;-83
2022/09/25 03:43:03;;;;;;;12.25;3.55;;;11.50;99.90;;;;;;5012374;28;20113;-83
2022/09/25 03:45:28;;;;;;;7.00;2.95;;;11.50;99.90;;;;;;5012110;28;20045;-83
2022/09/25 03:47:54;;;;;;;10.60;4.05;;;11.50;99.90;;;;;;5012000;28;20026;-84
2022/09/25 03:50:19;;;;;;;7.88;2.95;;;11.80;99.90;;;;;;4996347;28;20034;-84
2022/09/25 03:52:45;;;;;;;8.02;3.15;;;11.50;99.90;;;;;;5006608;28;20033;-83
2022/09/25 03:55:11;;;;;;;8.25;3.92;;;11.50;99.90;;;;;;4994025;28;20030;-83
2022/09/25 03:57:38;;;;;;;8.43;3.42;;;11.60;99.90;;;;;;4999842;28;20037;-84
2022/09/25 04:00:05;;;;;;;9.27;3.05;;;11.80;99.90;;;;;;5012527;28;20072;-84
2022/09/25 04:02:30;;;;;;;7.22;3.50;;;11.60;99.90;;;;;;5004380;28;20110;-84
2022/09/25 04:04:56;;;;;;;7.20;3.20;;;11.60;99.90;;;;;;4999219;28;20050;-84
2022/09/25 04:07:23;;;;;;;6.85;3.17;;;11.60;99.90;;;;;;4986037;28;20029;-84
2022/09/25 04:09:49;;;;;;;6.97;3.22;;;11.60;99.90;;;;;;4989511;28;20022;-84
2022/09/25 04:12:15;;;;;;;7.60;3.13;;;11.60;99.90;;;;;;4993962;28;20058;-84
2022/09/25 04:14:41;;;;;;;8.02;3.53;;;11.60;99.90;;;;;;4995845;28;20107;-84
2022/09/25 04:17:06;;;;;;;6.40;3.25;;;11.60;99.90;;;;;;5009914;28;20066;-84
2022/09/25 04:19:32;;;;;;;8.40;3.53;;;11.60;99.90;;;;;;5004969;28;20021;-84
2022/09/25 04:21:58;;;;;;;8.52;3.47;;;11.60;99.90;;;;;;4994675;28;20049;-84
2022/09/25 04:27:09;;;;;;;8.25;3.38;;;11.60;99.90;;;;;;5003776;28;20374;-84
2022/09/25 04:29:36;;;;;;;6.28;2.92;;;11.60;99.90;;;;;;4996645;28;20414;-84
2022/09/25 04:34:46;;;;;;;8.40;3.55;;;11.60;99.90;;;;;;5008769;28;20449;-84
2022/09/25 04:37:12;;;;;;;9.75;4.18;;;11.60;99.90;;;;;;5001867;28;20125;-84
2022/09/25 04:39:38;;;;;;;8.45;3.30;;;11.60;99.90;;;;;;5012697;28;20105;-84
2022/09/25 04:42:05;;;;;;;9.70;4.22;;;11.60;99.90;;;;;;5002964;28;20100;-84
2022/09/25 04:44:30;;;;;;;7.35;3.05;;;11.60;99.90;;;;;;4999548;28;20033;-84
2022/09/25 04:46:56;;;;;;;6.60;3.13;;;11.60;99.90;;;;;;5003645;28;20030;-85
2022/09/25 04:49:22;;;;;;;10.45;4.10;;;11.60;99.90;;;;;;5012133;28;20483;-84
2022/09/25 04:51:47;;;;;;;8.30;3.35;;;11.60;99.90;;;;;;5013230;28;20479;-84
2022/09/25 04:54:15;;;;;;;7.47;3.38;;;11.60;99.90;;;;;;5010274;28;20033;-84
2022/09/25 04:56:42;;;;;;;10.25;3.90;;;11.70;99.90;;;;;;4994052;28;20028;-84
2022/09/25 04:59:10;;;;;;;9.63;3.55;;;11.70;99.90;;;;;;5002424;28;20038;-84
2022/09/25 05:01:36;;;;;;;6.57;3.03;;;11.70;99.90;;;;;;4993647;28;20031;-84
2022/09/25 05:04:02;;;;;;;8.10;3.47;;;11.70;99.90;;;;;;5001146;28;20052;-84
2022/09/25 05:06:28;;;;;;;7.15;3.25;;;11.60;99.90;;;;;;5013309;28;20088;-84
2022/09/25 05:08:56;;;;;;;8.18;3.33;;;11.60;99.90;;;;;;5000353;28;20029;-84
2022/09/25 05:11:21;;;;;;;5.82;2.63;;;11.60;99.90;;;;;;4997718;28;20399;-84
2022/09/25 05:13:51;;;;;;;9.40;2.97;;;11.60;99.90;;;;;;5006956;28;20037;-84
2022/09/25 05:16:17;;;;;;;6.97;2.60;;;11.60;99.90;;;;;;5011146;28;20034;-84
2022/09/25 05:18:42;;;;;;;5.50;2.50;;;11.50;99.90;;;;;;5004651;28;20117;-84
2022/09/25 05:21:08;;;;;;;6.88;2.90;;;11.50;99.90;;;;;;4995452;28;20026;-85
2022/09/25 05:23:33;;;;;;;10.10;2.10;;;11.50;99.90;;;;;;5011741;28;20505;-84
2022/09/25 05:26:02;;;;;;;5.05;2.53;;;11.50;99.90;;;;;;4998873;28;20487;-84
2022/09/25 05:28:29;;;;;;;5.82;2.35;;;11.50;99.90;;;;;;4989013;28;20092;-84
2022/09/25 05:30:57;;;;;;;6.22;2.55;;;11.40;99.90;;;;;;5009971;28;20116;-84
2022/09/25 05:33:23;;;;;;;6.88;2.90;;;11.50;99.90;;;;;;5010200;28;20069;-84
2022/09/25 05:35:49;;;;;;;5.80;2.33;;;11.50;99.90;;;;;;4997538;28;20486;-84
2022/09/25 05:38:14;;;;;;;5.82;2.10;;;11.40;99.90;;;;;;5005446;28;20407;-84
2022/09/25 05:40:40;;;;;;;4.60;2.15;;;11.40;99.90;;;;;;5015322;28;20026;-84
2022/09/25 05:43:06;;;;;;;9.70;1.88;;;11.60;99.90;;;;;;5002190;28;20030;-84
2022/09/25 05:45:33;;;;;;;12.45;2.83;;;11.40;99.90;;;;;;5007662;28;20033;-85
2022/09/25 05:48:01;;;;;;;7.15;2.25;;;11.30;99.90;;;;;;5010978;28;20068;-84
2022/09/25 05:50:31;;;;;;;12.60;2.17;;;11.40;99.90;;;;;;5002177;28;20129;-84
2022/09/25 05:52:58;;;;;;;12.48;2.60;;;11.40;99.90;;;;;;5001503;28;21320;-84
2022/09/25 05:55:25;;;;;;;5.45;2.53;;;11.30;99.90;;;;;;4996679;28;20049;-83
2022/09/25 05:57:50;;;;;;;11.38;2.65;;;11.50;99.90;;;;;;5000887;28;20594;-83
2022/09/25 06:00:16;;;;;;;7.00;2.92;;;11.40;99.90;;;;;;4996337;28;20088;-84
2022/09/25 06:02:42;;;;;;;6.78;2.35;;;11.50;99.90;;;;;;5001836;28;20033;-84
2022/09/25 06:05:09;;;;;;;5.65;2.08;;;11.50;99.90;;;;;;5014021;28;20034;-84
2022/09/25 06:07:37;;;;;;;8.32;3.00;;;11.50;99.90;;;;;;5013590;28;20026;-84
2022/09/25 06:10:03;;;;;;;6.93;2.90;;;11.60;99.90;;;;;;5004165;28;20072;-84
2022/09/25 06:12:29;;;;;;;10.00;3.70;;;11.50;99.90;;;;;;5002273;28;20402;-84
2022/09/25 06:14:54;;;;;;;7.47;2.67;;;11.60;99.90;;;;;;4999063;28;20683;-84
2022/09/25 06:17:20;;;;;;;7.50;3.03;;;11.50;99.90;;;;;;5013722;28;20033;-84
2022/09/25 06:19:46;;;;;;;7.40;3.17;;;11.60;99.90;;;;;;5003541;28;20034;-85
2022/09/25 06:22:12;;;;;;;9.25;2.97;;;11.70;99.90;;;;;;5002340;28;20490;-84
2022/09/25 06:24:38;;;;;;;7.03;3.33;;;11.60;99.90;;;;;;5005387;28;20025;-84
2022/09/25 06:27:06;;;;;;;9.88;3.97;;;11.70;99.90;;;;;;4997469;28;20025;-84
2022/09/25 06:29:31;;;;;;;9.13;3.38;;;11.70;99.90;;;;;;5013548;28;20022;-84
2022/09/25 06:31:58;;;;;;;7.25;3.45;;;11.70;99.90;;;;;;5005159;28;20029;-84
2022/09/25 06:34:24;;;;;;;8.30;3.35;;;11.80;99.90;;;;;;5013899;28;20591;-84
2022/09/25 06:36:50;;;;;;;7.82;3.17;;;11.80;99.90;;;;;;5011083;28;20584;-84
2022/09/25 06:39:15;;;;;;;10.18;3.78;;;11.80;99.90;;;;;;4995357;28;20042;-84
2022/09/25 06:41:41;;;;;;;11.50;4.07;;;11.90;99.90;;;;;;5006567;28;20026;-84
2022/09/25 06:44:08;;;;;;;8.18;3.55;;;12.00;99.90;;;;;;5001080;28;20037;-84
2022/09/25 06:46:36;;;;;;;11.18;3.95;;;11.90;99.90;;;;;;5002639;28;20057;-84
2022/09/25 06:49:02;;;;;;;8.50;3.13;;;11.90;99.90;;;;;;5003923;28;20030;-84
2022/09/25 06:51:33;;;;;;;7.57;3.38;;;11.90;99.90;;;;;;5005831;28;20032;-84
2022/09/25 06:54:00;;;;;;;9.88;3.97;;;11.90;99.90;;;;;;4996961;28;20088;-84
2022/09/25 06:56:26;;;;;;;7.15;3.30;;;12.00;99.90;;;;;;4994067;28;20029;-84
2022/09/25 06:58:52;;;;;;;8.68;3.67;;;12.00;99.90;;;;;;4990704;28;20037;-84
2022/09/25 07:01:17;;;;;;;10.43;3.78;;;12.10;99.90;;;;;;5006865;28;20030;-84
2022/09/25 07:03:47;;;;;;;8.93;3.58;;;12.20;99.90;;;;;;5004452;28;20425;-84
2022/09/25 07:06:23;;;;;;;9.20;3.88;;;12.20;99.90;;;;;;5026063;23;20165;-88
2022/09/25 07:08:50;;;;;;;10.23;4.25;;;12.30;99.90;;;;;;5002981;28;20049;-88
2022/09/25 07:11:21;;;;;;;8.57;4.15;;;12.30;99.90;;;;;;5012268;28;20121;-88
2022/09/25 07:13:50;;;;;;;12.10;4.15;;;12.30;99.90;;;;;;4995916;28;20029;-87
2022/09/25 07:16:25;;;;;;;10.05;3.78;;;12.40;99.90;;;;;;5014715;28;20025;-88
2022/09/25 07:18:53;;;;;;;8.32;3.95;;;12.40;99.90;;;;;;5017173;28;20037;-88
2022/09/25 07:21:20;;;;;;;12.75;4.65;;;13.00;99.90;;;;;;5026218;28;20030;-88
2022/09/25 07:23:47;;;;;;;9.18;3.75;;;12.20;99.90;;;;;;5014117;28;20045;-88
2022/09/25 07:26:14;;;;;;;10.95;5.00;;;12.40;99.90;;;;;;5013299;28;20121;-88
2022/09/25 07:28:54;;;;;;;8.10;3.55;;;12.60;99.90;;;;;;5001132;28;20040;-88
2022/09/25 07:31:28;;;;;;;10.73;3.35;;;12.60;99.90;;;;;;5014649;28;20026;-88
2022/09/25 07:33:54;;;;;;;7.07;3.42;;;13.40;99.90;;;;;;5009801;28;20505;-88
2022/09/25 07:36:20;;;;;;;8.07;3.22;;;12.60;99.90;;;;;;5014692;28;20048;-88
2022/09/25 07:38:50;;;;;;;8.43;3.40;;;12.60;99.90;;;;;;5015137;28;20029;-87
2022/09/25 07:41:17;;;;;;;8.27;3.45;;;12.70;99.90;;;;;;5029928;28;20100;-89
2022/09/25 07:43:43;;;;;;;7.28;2.78;;;12.60;99.90;;;;;;5031757;28;20013;-89
2022/09/25 07:46:10;;;;;;;8.27;3.13;;;13.20;99.90;;;;;;5015426;28;20478;-88
2022/09/25 07:48:35;;;;;;;6.65;2.78;;;12.60;99.90;;;;;;5029412;28;20036;-88
2022/09/25 07:51:02;;;;;;;9.65;2.83;;;12.60;99.90;;;;;;5016088;28;20030;-89
2022/09/25 07:53:28;;;;;;;8.93;3.30;;;12.70;99.90;;;;;;5014895;28;20044;-88
2022/09/25 07:56:01;;;;;;;8.40;3.15;;;12.70;99.90;;;;;;5016834;28;20033;-90
2022/09/25 07:58:28;;;;;;;7.53;3.00;;;12.70;99.90;;;;;;5008702;28;20108;-89
2022/09/25 08:00:58;;;;;;;6.60;2.88;;;13.20;99.90;;;;;;5014071;28;20112;-88
2022/09/25 08:03:24;;;;;;;6.72;3.00;;;12.70;99.90;;;;;;5015126;28;20025;-88
2022/09/25 08:06:04;;;;;;;8.18;3.90;;;12.80;99.90;;;;;;5009262;28;20103;-88
2022/09/25 08:08:36;;;;;;;7.05;3.42;;;12.80;99.90;;;;;;5028075;28;20021;-89
2022/09/25 08:11:10;;;;;;;6.43;2.80;;;12.80;99.90;;;;;;5014980;28;20029;-89
2022/09/25 08:13:39;;;;;;;7.05;3.05;;;12.80;99.90;;;;;;5029162;28;20033;-89
2022/09/25 08:16:10;;;;;;;7.75;3.08;;;12.80;99.90;;;;;;5029990;28;20171;-87
2022/09/25 08:18:37;;;;;;;8.18;2.63;;;12.80;99.90;;;;;;5030938;28;20033;-89
2022/09/25 08:21:26;;;;;;;8.50;3.28;;;12.70;99.90;;;;;;5015431;28;20398;-91
2022/09/25 08:24:02;;;;;;;7.75;4.32;;;12.80;99.90;;;;;;5013922;28;20029;-91
2022/09/25 08:26:30;;;;;;;7.82;3.30;;;12.80;99.90;;;;;;5012672;28;20124;-90
2022/09/25 08:28:58;;;;;;;7.32;2.97;;;12.90;99.90;;;;;;5013831;28;20041;-89
2022/09/25 08:31:25;;;;;;;7.57;3.28;;;13.20;99.90;;;;;;5013537;28;20018;-89
2022/09/25 08:33:54;;;;;;;6.20;2.70;;;13.10;99.90;;;;;;5015330;28;20036;-91
2022/09/25 08:36:27;;;;;;;7.85;3.03;;;13.20;99.90;;;;;;5015124;28;20116;-91
2022/09/25 08:38:59;;;;;;;7.78;2.83;;;13.40;99.90;;;;;;5005254;28;20524;-91
2022/09/25 08:41:29;;;;;;;7.10;3.15;;;13.90;99.90;;;;;;5013801;28;20014;-89
2022/09/25 08:44:04;;;;;;;5.32;3.08;;;13.60;99.90;;;;;;5030548;28;20021;-90
2022/09/25 08:49:42;;;;;;;5.72;2.70;;;13.60;99.90;;;;;;5029527;28;20129;-90
2022/09/25 08:52:15;;;;;;;7.80;2.88;;;13.70;99.90;;;;;;5029505;28;20034;-90
2022/09/25 08:54:50;;;;;;;5.75;2.58;;;13.80;99.90;;;;;;5033108;28;20025;-91
2022/09/25 08:57:39;;;;;;;5.20;2.80;;;13.80;99.90;;;;;;5026029;28;20071;-90
2022/09/25 09:00:21;;;;;;;5.88;2.53;;;14.30;99.90;;;;;;5023868;28;20036;-89
2022/09/25 09:03:01;;;;;;;6.80;2.83;;;14.00;99.90;;;;;;5016222;28;20505;-91
2022/09/25 09:05:36;;;;;;;5.72;2.05;;;14.00;99.90;;;;;;5018650;28;20501;-90
2022/09/25 09:08:09;;;;;;;5.15;2.35;;;13.40;99.90;;;;;;5014967;28;20026;-90
2022/09/25 09:10:55;;;;;;;4.65;2.28;;;14.50;99.90;;;;;;5014888;28;20398;-89
2022/09/25 09:13:50;;;;;;;5.45;2.47;;;14.00;99.90;;;;;;5032814;28;20021;-90
2022/09/25 09:16:26;;;;;;;5.53;1.92;;;14.10;99.90;;;;;;5013912;28;20035;-88
2022/09/25 09:18:53;;;;;;;6.70;2.65;;;14.20;99.90;;;;;;5013449;28;20288;-89
2022/09/25 09:21:48;;;;;;;4.95;2.25;;;14.10;99.90;;;;;;5032799;28;20021;-90
2022/09/25 09:24:16;;;;;;;5.03;2.05;;;14.10;99.90;;;;;;5026337;28;20029;-90
2022/09/25 09:27:16;;;;;;;4.80;2.00;;;14.40;99.90;;;;;;5026067;28;20017;-90
2022/09/25 09:30:06;;;;;;;4.03;1.83;;;14.20;99.90;;;;;;5015782;28;20063;-90
2022/09/25 09:33:05;;;;;;;5.18;2.80;;;14.10;99.90;;;;;;5021788;28;20030;-90
2022/09/25 09:36:05;;;;;;;4.10;1.90;;;14.10;99.90;;;;;;5011383;28;20036;-91
2022/09/25 09:38:46;;;;;;;5.85;2.30;;;14.10;99.90;;;;;;5028309;28;20215;-89
2022/09/25 09:41:17;;;;;;;3.05;1.17;;;14.00;99.90;;;;;;5012579;28;20060;-89
2022/09/25 09:44:02;;;;;;;4.57;2.20;;;13.80;99.90;;;;;;5027272;28;20100;-89
2022/09/25 09:47:02;;;;;;;3.83;1.77;;;13.80;99.90;;;;;;5010997;28;20308;-89
2022/09/25 09:49:36;;;;;;;5.50;2.17;;;13.90;99.90;;;;;;5016045;28;20113;-89
2022/09/25 09:52:23;;;;;;;4.18;2.10;;;14.10;99.90;;;;;;5032694;28;20025;-89
2022/09/25 09:55:21;;;;;;;3.75;1.67;;;14.00;99.90;;;;;;5016226;28;20057;-88
2022/09/25 09:57:58;;;;;;;4.38;1.98;;;14.20;99.90;;;;;;4999659;28;20038;-89
2022/09/25 10:00:27;;;;;;;4.70;2.05;;;13.90;99.90;;;;;;5006660;28;20049;-89
2022/09/25 10:04:04;;;;;;;5.10;2.33;;;14.40;99.90;;;;;;5022443;28;20033;-90
2022/09/25 10:06:27;;;;;;;5.45;2.15;;;14.30;99.90;;;;;;5015549;28;20112;-90
2022/09/25 10:08:59;;;;;;;3.67;1.75;;;14.70;99.90;;;;;;5016194;28;20061;-89
2022/09/25 10:11:31;;;;;;;4.20;1.95;;;14.50;99.90;;;;;;5022999;28;20021;-89
2022/09/25 10:14:03;;;;;;;5.20;2.35;;;14.50;99.90;;;;;;5041233;28;20053;-91
2022/09/25 10:16:29;;;;;;;5.47;2.20;;;14.70;99.90;;;;;;5027740;28;20048;-89
2022/09/25 10:19:19;;;;;;;4.38;2.13;;;15.10;99.90;;;;;;5022443;28;20026;-89
2022/09/25 10:21:52;;;;;;;5.90;2.30;;;14.50;99.90;;;;;;5037672;28;20029;-89
2022/09/25 10:25:00;;;;;;;3.88;1.95;;;14.50;99.90;;;;;;5054854;28;20068;-89
2022/09/25 10:27:49;;;;;;;3.42;1.67;;;14.50;99.90;;;;;;5020029;28;20025;-89
2022/09/25 10:30:25;;;;;;;5.25;2.40;;;14.40;99.90;;;;;;4987967;28;20037;-88
2022/09/25 10:33:13;;;;;;;4.65;2.22;;;14.40;99.90;;;;;;5024287;28;20040;-89
2022/09/25 10:35:47;;;;;;;5.15;2.30;;;14.60;99.90;;;;;;5021470;28;20352;-89
2022/09/25 10:38:37;;;;;;;4.90;2.20;;;14.50;99.90;;;;;;5029956;28;20025;-89
2022/09/25 10:41:16;;;;;;;4.68;2.38;;;14.60;99.90;;;;;;5033200;28;20033;-88
2022/09/25 10:44:01;;;;;;;4.00;2.03;;;14.70;99.90;;;;;;5034406;28;20025;-89
2022/09/25 10:52:58;;;;;;;4.78;1.95;;;15.30;99.90;;;;;;5041692;28;20185;-90
2022/09/25 10:55:42;;;;;;;6.40;1.88;;;14.60;99.90;;;;;;5030453;28;20071;-89
2022/09/25 10:58:13;;;;;;;4.82;1.88;;;14.60;99.90;;;;;;5035603;28;20095;-90
2022/09/25 11:00:55;;;;;;;4.60;2.13;;;14.60;99.90;;;;;;5025403;28;20028;-90
2022/09/25 11:03:23;;;;;;;4.68;2.10;;;14.50;99.90;;;;;;5036318;28;20248;-89
2022/09/25 11:06:07;;;;;;;4.90;2.22;;;14.60;99.90;;;;;;5035881;28;20029;-88
2022/09/25 11:08:40;;;;;;;4.68;2.28;;;14.30;99.90;;;;;;5009147;28;20092;-89
2022/09/25 11:11:08;;;;;;;4.57;2.13;;;14.20;99.90;;;;;;5021579;28;20027;-88
2022/09/25 11:13:49;;;;;;;6.22;2.22;;;14.20;99.90;;;;;;5015243;28;20029;-88
2022/09/25 11:16:15;;;;;;;4.65;2.50;;;14.20;99.90;;;;;;5044331;28;20410;-89
2022/09/25 11:19:10;;;;;;;5.10;2.15;;;14.20;99.90;;;;;;5036074;28;20498;-90
2022/09/25 11:21:58;;;;;;;5.25;2.53;;;14.20;99.90;;;;;;5018094;28;20267;-89
2022/09/25 11:24:52;;;;;;;4.82;2.33;;;14.20;99.90;;;;;;5033324;28;20029;-90
2022/09/25 11:27:53;;;;;;;6.00;2.78;;;14.10;99.90;;;;;;5044021;28;20010;-90
2022/09/25 11:30:21;;;;;;;6.25;3.03;;;14.10;99.90;;;;;;5044932;28;20025;-91
2022/09/25 11:33:25;;;;;;;5.78;2.97;;;14.10;99.90;;;;;;5024663;28;20022;-90
2022/09/25 11:36:23;;;;;;;5.47;2.78;;;14.00;99.90;;;;;;5017580;28;20055;-90
2022/09/25 11:42:27;;;;;;;4.90;2.72;;;13.90;99.90;;;;;;5044458;28;20056;-91
2022/09/25 11:45:08;;;;;;;8.43;3.65;;;13.90;99.90;;;;;;5030010;28;20038;-90
2022/09/25 11:48:20;;;;;;;5.47;3.20;;;13.80;99.90;;;;;;5043663;28;20030;-91
2022/09/25 11:51:15;;;;;;;7.40;3.60;;;13.90;99.90;;;;;;5026197;28;20029;-90
2022/09/25 11:54:03;;;;;;;7.22;4.05;;;14.00;99.90;;;;;;5026214;28;20025;-91
2022/09/25 11:56:47;;;;;;;7.38;4.20;;;14.10;99.90;;;;;;5025673;28;20037;-90
2022/09/25 11:59:41;;;;;;;9.05;4.40;;;14.20;99.90;;;;;;5026295;28;20035;-90
2022/09/25 12:02:59;;;;;;;7.45;4.00;;;14.20;99.90;;;;;;5030911;28;20026;-90
2022/09/25 12:05:48;;;;;;;6.82;3.60;;;14.20;99.90;;;;;;5000492;28;20033;-91
2022/09/25 12:08:58;;;;;;;7.35;3.45;;;14.30;99.90;;;;;;5020789;28;20066;-90
2022/09/25 12:11:57;;;;;;;6.25;3.33;;;14.50;99.90;;;;;;5025507;28;20029;-91
2022/09/25 12:14:34;;;;;;;9.55;4.22;;;14.70;99.90;;;;;;5026938;28;20025;-90
2022/09/25 12:17:39;;;;;;;;;;;;;;;;;;;;;
2022/09/25 12:20:43;;;;;;;6.63;3.55;;;14.10;99.90;;;;;;5037690;28;20446;-90
2022/09/25 12:23:28;;;;;;;7.07;3.97;;;14.20;99.90;;;;;;5031099;28;20034;-90
2022/09/25 12:26:19;;;;;;;7.03;3.90;;;14.40;99.90;;;;;;5020013;28;20034;-90
2022/09/25 12:29:08;;;;;;;8.32;3.85;;;14.50;99.90;;;;;;5014716;28;20025;-90
2022/09/25 12:31:59;;;;;;;8.48;4.10;;;14.70;99.90;;;;;;5020194;28;20032;-90
2022/09/25 12:34:51;;;;;;;8.07;4.10;;;14.80;99.90;;;;;;5019225;28;20095;-90
2022/09/25 12:37:25;;;;;;;10.30;4.53;;;15.00;99.90;;;;;;5025086;28;20028;-91
2022/09/25 12:40:02;;;;;;;11.50;4.25;;;15.10;99.90;;;;;;5025751;28;20079;-90
2022/09/25 12:43:14;;;;;;;8.45;4.70;;;15.40;99.90;;;;;;5021518;28;20021;-90
2022/09/25 12:45:48;;;;;;;8.73;4.55;;;15.70;99.90;;;;;;4927451;29;20258;-91
2022/09/25 12:48:58;;;;;;;8.60;4.75;;;15.60;99.90;;;;;;4923970;29;20061;-91
2022/09/25 12:51:53;;;;;;;8.45;4.20;;;15.70;99.90;;;;;;5003787;28;20025;-90
2022/09/25 12:54:52;;;;;;;11.18;3.80;;;16.10;99.90;;;;;;5040656;28;20014;-90
2022/09/25 12:57:48;;;;;;;8.50;4.13;;;16.30;99.90;;;;;;5020763;28;20084;-90
2022/09/25 13:00:24;;;;;;;8.95;4.32;;;16.10;99.90;;;;;;5007307;28;20101;-90
2022/09/25 13:03:42;;;;;;;8.65;4.45;;;16.50;99.90;;;;;;5031119;28;20017;-90
2022/09/25 13:06:19;;;;;;;7.50;3.40;;;16.70;99.90;;;;;;4971858;28;20053;-91
2022/09/25 13:09:14;;;;;;;7.68;4.30;;;16.60;99.90;;;;;;5033787;28;20490;-89
2022/09/25 13:12:01;;;;;;;7.10;3.97;;;16.60;99.90;;;;;;5026939;28;20120;-89
2022/09/25 13:14:41;;;;;;;7.72;3.88;;;17.00;99.90;;;;;;5035148;28;20021;-89
2022/09/25 13:17:12;;;;;;;7.47;4.20;;;17.20;99.90;;;;;;5017841;28;20034;-90
2022/09/25 13:19:38;;;;;;;6.37;3.80;;;17.30;99.90;;;;;;5015207;28;20053;-90
2022/09/25 13:22:14;;;;;;;7.38;3.83;;;17.40;99.90;;;;;;5003606;28;20052;-89
2022/09/25 13:24:45;;;;;;;6.57;3.90;;;17.30;99.90;;;;;;5039744;23;20069;-83
2022/09/25 13:27:18;;;;;;;7.07;3.55;;;17.20;99.90;;;;;;5025963;28;20035;-83
2022/09/25 13:29:59;;;;;;;6.53;3.67;;;17.30;99.90;;;;;;5028060;28;20422;-82
2022/09/25 13:32:33;;;;;;;6.22;2.80;;;17.40;99.90;;;;;;5027027;28;20029;-83
2022/09/25 13:35:02;;;;;;;5.93;3.35;;;17.50;99.90;;;;;;5013772;28;20060;-82
2022/09/25 13:37:33;;;;;;;7.45;3.22;;;17.80;99.90;;;;;;5010579;28;20525;-83
2022/09/25 13:43:23;;;;;;;7.72;3.10;;;17.50;99.90;;;;;;5014975;28;20441;-82
2022/09/25 13:46:22;;;;;;;5.47;2.50;;;17.30;99.90;;;;;;5008149;28;20018;-82
2022/09/25 13:48:51;;;;;;;5.88;2.90;;;17.00;99.90;;;;;;5008621;28;20026;-82